Time;durP1;ratioP1;P1;durP2;ratioP2;P2;SDS_P1;SDS_P2;PMS_P1;PMS_P2;Temp;Humidity;BMP_temperature;BMP_pressure;BME280_temperature;BME280_humidity;BME280_pressure;Samples;Min_cycle;Max_cycle;Signal;HPM_P1;HPM_P2
2023/07/17 00:01:18;;;;;;;5.30;4.70;;;23.00;92.30;;;;;;5053413;28;20475;-76
2023/07/17 00:03:47;;;;;;;8.13;4.13;;;23.00;92.40;;;;;;5053491;28;20603;-71
2023/07/17 00:06:15;;;;;;;9.17;3.73;;;23.00;92.50;;;;;;5053415;28;20443;-71
2023/07/17 00:08:45;;;;;;;8.43;3.77;;;23.00;92.60;;;;;;5063166;28;20474;-71
2023/07/17 00:11:12;;;;;;;5.30;3.60;;;22.90;93.00;;;;;;5073384;28;20564;-71
2023/07/17 00:13:40;;;;;;;4.10;2.83;;;22.80;93.30;;;;;;5072944;28;20952;-71
2023/07/17 00:16:08;;;;;;;5.13;3.10;;;22.80;93.20;;;;;;5070557;28;20471;-71
2023/07/17 00:18:35;;;;;;;6.63;3.60;;;22.80;93.10;;;;;;5061811;28;20519;-72
2023/07/17 00:21:02;;;;;;;4.33;3.30;;;22.90;92.90;;;;;;5073253;28;20452;-71
2023/07/17 00:23:32;;;;;;;4.60;3.83;;;22.90;92.90;;;;;;5073312;28;20786;-71
2023/07/17 00:25:59;;;;;;;5.10;3.70;;;22.90;92.70;;;;;;5073200;28;20441;-71
2023/07/17 00:28:28;;;;;;;3.40;2.83;;;22.90;92.70;;;;;;5072742;28;20434;-71
2023/07/17 00:30:55;;;;;;;5.13;3.20;;;22.90;92.80;;;;;;5074427;28;20507;-72
2023/07/17 00:33:22;;;;;;;5.57;3.67;;;22.90;92.70;;;;;;5076863;28;20557;-71
2023/07/17 00:35:49;;;;;;;4.13;3.57;;;22.90;92.70;;;;;;5077208;28;20863;-71
2023/07/17 00:38:16;;;;;;;3.73;3.00;;;22.90;92.90;;;;;;5070525;28;20858;-71
2023/07/17 00:40:45;;;;;;;4.20;3.33;;;22.80;93.00;;;;;;5056819;28;20476;-71
2023/07/17 00:43:13;;;;;;;5.93;3.80;;;22.80;93.10;;;;;;5056664;28;20543;-72
2023/07/17 00:45:42;;;;;;;5.50;3.37;;;22.90;93.10;;;;;;5057053;28;20479;-71
2023/07/17 00:48:10;;;;;;;4.63;3.63;;;22.90;92.90;;;;;;5060963;28;20436;-71
2023/07/17 00:50:41;;;;;;;7.57;3.80;;;22.80;92.90;;;;;;5076899;28;20478;-71
2023/07/17 00:53:09;;;;;;;6.30;2.70;;;22.80;93.10;;;;;;5076764;28;20472;-73
2023/07/17 00:55:37;;;;;;;5.83;3.37;;;22.80;93.20;;;;;;5076495;28;20953;-71
2023/07/17 00:58:05;;;;;;;6.30;3.10;;;22.80;93.10;;;;;;5075902;28;20474;-71
2023/07/17 01:00:33;;;;;;;5.57;3.03;;;22.80;93.00;;;;;;5076418;28;20528;-71
2023/07/17 01:03:02;;;;;;;3.70;2.80;;;22.80;92.90;;;;;;5076832;28;20451;-71
2023/07/17 01:05:29;;;;;;;4.27;3.30;;;22.80;93.00;;;;;;5076219;28;20476;-71
2023/07/17 01:07:58;;;;;;;5.07;2.80;;;22.80;93.10;;;;;;5073989;28;20436;-71
2023/07/17 01:10:25;;;;;;;5.10;3.77;;;22.80;93.20;;;;;;5055925;28;20544;-71
2023/07/17 01:12:52;;;;;;;4.97;3.53;;;22.70;92.90;;;;;;5056182;28;20566;-71
2023/07/17 01:15:20;;;;;;;4.73;4.20;;;22.70;92.90;;;;;;5056022;28;20478;-71
2023/07/17 01:17:47;;;;;;;4.40;3.60;;;22.80;93.10;;;;;;5056065;28;20439;-75
2023/07/17 01:20:14;;;;;;;4.30;3.37;;;22.80;94.10;;;;;;5075893;28;20907;-72
2023/07/17 01:22:54;;;;;;;7.13;3.90;;;22.80;94.00;;;;;;5074105;28;20444;-72
2023/07/17 01:25:21;;;;;;;4.97;3.50;;;22.80;93.90;;;;;;5076354;28;20425;-71
2023/07/17 01:27:48;;;;;;;5.13;3.43;;;22.70;94.00;;;;;;5069319;28;20567;-71
2023/07/17 01:30:19;;;;;;;6.10;3.33;;;22.70;94.10;;;;;;5055824;28;20437;-71
2023/07/17 01:32:46;;;;;;;3.80;3.40;;;22.70;94.00;;;;;;5055776;28;20504;-71
2023/07/17 01:35:18;;;;;;;4.70;3.70;;;22.70;94.00;;;;;;5056012;28;20436;-72
2023/07/17 01:37:45;;;;;;;5.20;3.60;;;22.50;94.40;;;;;;5055388;28;20957;-72
2023/07/17 01:40:15;;;;;;;4.70;3.77;;;22.50;94.40;;;;;;5055949;28;20440;-71
2023/07/17 01:42:42;;;;;;;4.70;3.50;;;22.40;94.50;;;;;;5055348;28;20471;-71
2023/07/17 01:45:12;;;;;;;6.83;3.13;;;22.40;94.60;;;;;;5055576;28;20437;-71
2023/07/17 01:47:39;;;;;;;4.80;3.30;;;22.50;94.60;;;;;;5055821;28;20471;-71
2023/07/17 01:50:07;;;;;;;6.10;3.90;;;22.50;94.60;;;;;;5055555;28;20503;-71
2023/07/17 01:52:33;;;;;;;4.67;3.17;;;22.50;94.60;;;;;;5055389;28;20529;-71
2023/07/17 01:55:00;;;;;;;4.37;3.23;;;22.50;94.60;;;;;;5072725;28;21003;-71
2023/07/17 01:57:28;;;;;;;5.00;3.37;;;22.50;94.60;;;;;;5075287;28;20471;-71
2023/07/17 01:59:55;;;;;;;5.60;2.90;;;22.60;94.80;;;;;;5075718;28;20685;-71
2023/07/17 02:02:25;;;;;;;5.33;2.80;;;22.60;94.70;;;;;;5075355;28;20482;-77
2023/07/17 02:04:52;;;;;;;4.13;3.33;;;22.60;94.60;;;;;;5075266;28;20445;-71
2023/07/17 02:07:19;;;;;;;3.40;2.60;;;22.60;94.30;;;;;;5074981;28;20522;-71
2023/07/17 02:09:46;;;;;;;6.33;2.80;;;22.60;94.10;;;;;;5075456;28;20890;-71
2023/07/17 02:12:13;;;;;;;3.70;3.20;;;22.60;94.00;;;;;;5074992;28;20588;-71
2023/07/17 02:14:42;;;;;;;4.03;2.80;;;22.70;94.00;;;;;;5075467;28;20440;-71
2023/07/17 02:17:09;;;;;;;4.47;3.13;;;22.70;94.10;;;;;;5061265;28;20434;-71
2023/07/17 02:19:36;;;;;;;3.63;2.43;;;22.60;94.30;;;;;;5073492;28;20443;-71
2023/07/17 02:22:03;;;;;;;8.40;2.90;;;22.60;94.30;;;;;;5075184;28;20839;-72
2023/07/17 02:24:30;;;;;;;4.30;2.70;;;22.60;94.20;;;;;;5074757;28;20439;-71
2023/07/17 02:26:58;;;;;;;4.30;2.80;;;22.60;94.20;;;;;;5075048;28;20841;-77
2023/07/17 02:29:25;;;;;;;5.70;2.60;;;22.60;94.10;;;;;;5074700;28;20454;-71
2023/07/17 02:31:54;;;;;;;3.90;3.27;;;22.70;94.00;;;;;;5057791;28;20539;-71
2023/07/17 02:34:21;;;;;;;6.50;3.93;;;22.70;94.10;;;;;;5067507;28;20501;-71
2023/07/17 02:36:48;;;;;;;3.90;3.00;;;22.70;94.10;;;;;;5074906;28;20843;-72
2023/07/17 02:39:15;;;;;;;5.03;3.40;;;22.70;93.70;;;;;;5074552;28;20478;-71
2023/07/17 02:41:42;;;;;;;6.23;4.37;;;22.60;93.70;;;;;;5059104;28;20805;-71
2023/07/17 02:44:10;;;;;;;4.83;3.70;;;22.70;93.70;;;;;;5054735;28;20532;-71
2023/07/17 02:46:37;;;;;;;6.40;3.37;;;22.60;93.70;;;;;;5054684;28;20481;-71
2023/07/17 02:49:06;;;;;;;5.20;3.70;;;22.70;93.70;;;;;;5054626;28;20527;-71
2023/07/17 02:51:33;;;;;;;3.60;2.93;;;22.70;93.60;;;;;;5067769;28;20450;-71
2023/07/17 02:54:00;;;;;;;5.17;3.47;;;22.70;93.50;;;;;;5073275;28;20570;-71
2023/07/17 02:56:27;;;;;;;4.77;3.43;;;22.60;93.50;;;;;;5074360;28;20518;-71
2023/07/17 02:58:54;;;;;;;4.87;3.47;;;22.60;93.50;;;;;;5073701;28;20464;-71
2023/07/17 03:01:21;;;;;;;8.00;3.70;;;22.60;93.40;;;;;;5062708;28;20480;-71
2023/07/17 03:03:48;;;;;;;5.80;3.60;;;22.50;93.40;;;;;;5054531;28;20477;-71
2023/07/17 03:06:17;;;;;;;4.60;3.70;;;22.50;93.60;;;;;;5054039;28;20477;-71
2023/07/17 03:08:44;;;;;;;5.57;3.80;;;22.50;93.60;;;;;;5054056;28;20876;-71
2023/07/17 03:11:12;;;;;;;5.60;4.20;;;22.50;93.60;;;;;;5067622;28;20791;-71
2023/07/17 03:13:39;;;;;;;8.30;5.00;;;22.50;93.60;;;;;;5073163;28;20565;-71
2023/07/17 03:16:07;;;;;;;11.57;4.43;;;22.50;95.00;;;;;;5073866;28;20481;-70
2023/07/17 03:18:39;;;;;;;7.67;4.17;;;22.50;95.20;;;;;;5074093;28;20479;-71
2023/07/17 03:21:06;;;;;;;9.63;4.50;;;22.40;95.70;;;;;;5061113;28;20462;-70
2023/07/17 03:23:35;;;;;;;8.80;4.40;;;22.30;96.30;;;;;;5054281;28;20848;-70
2023/07/17 03:26:02;;;;;;;5.30;3.73;;;22.30;97.10;;;;;;5054129;28;20534;-70
2023/07/17 03:28:29;;;;;;;7.10;3.93;;;22.30;97.20;;;;;;5053828;28;20524;-71
2023/07/17 03:30:56;;;;;;;6.20;4.30;;;22.30;97.00;;;;;;5054822;28;20526;-70
2023/07/17 03:33:28;;;;;;;6.00;4.77;;;22.30;97.00;;;;;;5053548;28;20563;-71
2023/07/17 03:35:55;;;;;;;8.63;4.20;;;22.20;97.40;;;;;;5054031;28;20456;-70
2023/07/17 03:38:22;;;;;;;6.03;4.30;;;22.20;97.70;;;;;;5054002;28;20476;-70
2023/07/17 03:40:50;;;;;;;9.30;4.10;;;22.10;98.00;;;;;;5065175;28;20452;-70
2023/07/17 03:43:17;;;;;;;7.57;4.00;;;22.10;97.80;;;;;;5073751;28;20443;-70
2023/07/17 03:45:50;;;;;;;6.33;4.40;;;22.10;98.00;;;;;;5073903;28;20473;-70
2023/07/17 03:48:17;;;;;;;7.77;4.00;;;22.00;98.20;;;;;;5073653;28;20946;-70
2023/07/17 03:50:44;;;;;;;4.73;3.70;;;22.00;98.50;;;;;;5062435;28;20531;-70
2023/07/17 03:53:11;;;;;;;4.63;3.80;;;22.00;98.70;;;;;;5053310;28;20628;-69
2023/07/17 03:55:40;;;;;;;7.47;4.10;;;22.00;98.70;;;;;;5053704;28;20519;-69
2023/07/17 03:58:08;;;;;;;8.20;4.50;;;22.00;98.80;;;;;;5053136;28;20499;-69
2023/07/17 04:00:40;;;;;;;6.60;4.87;;;22.00;98.80;;;;;;5052893;28;20518;-68
2023/07/17 04:03:07;;;;;;;6.60;3.90;;;22.00;98.90;;;;;;5053472;28;20475;-69
2023/07/17 04:05:34;;;;;;;8.50;4.10;;;22.00;98.90;;;;;;5053345;28;20515;-69
2023/07/17 04:08:02;;;;;;;5.77;3.90;;;22.00;98.70;;;;;;5052738;28;20474;-69
2023/07/17 04:10:30;;;;;;;6.07;4.37;;;21.90;98.80;;;;;;5052856;28;20460;-69
2023/07/17 04:12:57;;;;;;;7.47;4.03;;;21.80;99.10;;;;;;5052894;28;20474;-69
2023/07/17 04:15:25;;;;;;;7.87;4.63;;;21.80;99.30;;;;;;5066083;28;20529;-69
2023/07/17 04:17:52;;;;;;;9.67;5.30;;;21.80;99.40;;;;;;5073434;28;20463;-69
2023/07/17 04:20:19;;;;;;;5.70;4.40;;;21.80;99.50;;;;;;5072980;28;20530;-69
2023/07/17 04:22:51;;;;;;;6.93;3.93;;;21.80;99.40;;;;;;5073322;28;20442;-69
2023/07/17 04:25:18;;;;;;;7.70;4.10;;;21.80;99.30;;;;;;5072613;28;20513;-69
2023/07/17 04:27:45;;;;;;;7.90;4.50;;;21.80;99.30;;;;;;5072233;28;20435;-69
2023/07/17 04:30:13;;;;;;;7.13;4.10;;;21.80;99.60;;;;;;5072973;28;20479;-69
2023/07/17 04:32:41;;;;;;;5.77;4.23;;;21.80;99.70;;;;;;5072830;28;20478;-69
2023/07/17 04:35:09;;;;;;;7.20;3.80;;;21.80;99.50;;;;;;5072891;28;20477;-69
2023/07/17 04:37:36;;;;;;;5.97;4.00;;;21.80;99.80;;;;;;5054900;28;20985;-70
2023/07/17 04:40:05;;;;;;;4.83;3.77;;;21.80;99.80;;;;;;5053314;28;20543;-69
2023/07/17 04:42:32;;;;;;;5.90;4.30;;;21.80;99.50;;;;;;5053060;28;20447;-69
2023/07/17 04:44:59;;;;;;;6.93;5.00;;;21.70;99.10;;;;;;5053081;28;20470;-69
2023/07/17 04:47:26;;;;;;;4.57;3.87;;;21.70;99.20;;;;;;5067477;28;20471;-69
2023/07/17 04:49:55;;;;;;;5.50;4.00;;;21.70;99.30;;;;;;5073081;28;20478;-69
2023/07/17 04:52:24;;;;;;;5.50;4.60;;;21.70;99.70;;;;;;5072986;28;20506;-69
2023/07/17 04:54:51;;;;;;;7.63;5.23;;;21.70;99.80;;;;;;5072572;28;20508;-69
2023/07/17 04:57:18;;;;;;;6.27;4.67;;;21.70;99.90;;;;;;5052822;28;20437;-70
2023/07/17 04:59:45;;;;;;;5.97;4.47;;;21.70;99.90;;;;;;5051164;28;20444;-69
2023/07/17 05:02:13;;;;;;;10.33;4.70;;;21.70;99.90;;;;;;5050932;28;20446;-69
2023/07/17 05:04:45;;;;;;;4.57;3.70;;;21.70;99.90;;;;;;5051124;28;20501;-69
2023/07/17 05:07:13;;;;;;;5.37;4.30;;;21.70;99.90;;;;;;5050783;28;20463;-69
2023/07/17 05:09:40;;;;;;;5.97;4.10;;;21.70;99.90;;;;;;5053712;28;20558;-69
2023/07/17 05:12:08;;;;;;;7.33;4.33;;;21.70;99.90;;;;;;5054470;28;20441;-69
2023/07/17 05:14:35;;;;;;;6.30;3.97;;;21.70;99.90;;;;;;5050693;28;20570;-69
2023/07/17 05:17:06;;;;;;;5.43;3.80;;;21.70;99.90;;;;;;5052035;28;20447;-69
2023/07/17 05:19:38;;;;;;;7.47;4.53;;;21.70;99.90;;;;;;5054598;28;20440;-69
2023/07/17 05:22:07;;;;;;;6.17;4.07;;;21.80;99.90;;;;;;5054342;28;20493;-70
2023/07/17 05:24:36;;;;;;;5.83;4.20;;;21.80;99.90;;;;;;5054767;28;20436;-69
2023/07/17 05:27:04;;;;;;;6.43;4.17;;;21.80;99.90;;;;;;5054620;28;21434;-70
2023/07/17 05:29:32;;;;;;;5.00;4.00;;;21.80;99.90;;;;;;5058611;28;20431;-69
2023/07/17 05:31:59;;;;;;;4.90;4.37;;;21.80;99.90;;;;;;5054367;28;20449;-69
2023/07/17 05:34:26;;;;;;;6.73;4.23;;;21.90;99.90;;;;;;5054577;28;20570;-69
2023/07/17 05:36:53;;;;;;;6.33;4.07;;;21.90;99.90;;;;;;5054532;28;20449;-74
2023/07/17 05:39:20;;;;;;;9.00;4.60;;;21.90;99.90;;;;;;5058447;28;20487;-69
2023/07/17 05:41:49;;;;;;;5.73;4.13;;;21.90;99.90;;;;;;5054028;28;20440;-72
2023/07/17 05:44:15;;;;;;;6.17;4.57;;;21.90;99.90;;;;;;5054056;28;20505;-69
2023/07/17 05:46:42;;;;;;;5.77;4.10;;;21.90;99.90;;;;;;5054474;28;20848;-69
2023/07/17 05:49:09;;;;;;;6.37;4.80;;;21.90;99.90;;;;;;5056590;28;20522;-69
2023/07/17 05:51:37;;;;;;;6.70;4.60;;;21.90;99.90;;;;;;5054223;28;20436;-68
2023/07/17 05:54:04;;;;;;;4.03;3.40;;;21.90;99.90;;;;;;5053521;28;20478;-69
2023/07/17 05:56:31;;;;;;;6.10;4.13;;;21.90;99.80;;;;;;5053711;28;20869;-69
2023/07/17 05:58:59;;;;;;;4.47;3.67;;;21.90;99.90;;;;;;5053495;28;20440;-69
2023/07/17 06:01:26;;;;;;;5.37;3.90;;;21.90;99.90;;;;;;5050078;28;20549;-69
2023/07/17 06:03:54;;;;;;;9.13;5.43;;;21.90;99.90;;;;;;5053646;28;20452;-69
2023/07/17 06:06:21;;;;;;;6.03;4.07;;;21.90;99.90;;;;;;5053072;28;20446;-69
2023/07/17 06:08:48;;;;;;;5.97;3.87;;;21.90;99.90;;;;;;5052668;28;20900;-70
2023/07/17 06:11:14;;;;;;;5.20;3.67;;;21.90;99.90;;;;;;5053784;28;20496;-69
2023/07/17 06:13:41;;;;;;;5.17;3.97;;;21.90;99.90;;;;;;5056690;28;20502;-69
2023/07/17 06:16:10;;;;;;;6.20;3.40;;;21.90;99.80;;;;;;5056839;28;20546;-69
2023/07/17 06:18:37;;;;;;;5.60;3.80;;;21.90;99.40;;;;;;5052570;28;20435;-69
2023/07/17 06:21:04;;;;;;;5.13;3.77;;;21.90;99.20;;;;;;5053483;28;20444;-69
2023/07/17 06:23:31;;;;;;;5.80;3.57;;;21.90;98.90;;;;;;5054587;28;20443;-69
2023/07/17 06:26:00;;;;;;;5.23;3.43;;;21.90;98.70;;;;;;5053339;28;20436;-70
2023/07/17 06:28:27;;;;;;;5.70;3.33;;;21.90;98.40;;;;;;5051700;28;20444;-69
2023/07/17 06:30:54;;;;;;;5.03;3.10;;;21.90;98.60;;;;;;5056616;28;20470;-69
2023/07/17 06:33:23;;;;;;;6.70;3.63;;;21.90;98.40;;;;;;5053065;28;20532;-69
2023/07/17 06:35:50;;;;;;;5.40;3.67;;;21.80;98.10;;;;;;5052976;28;20631;-69
2023/07/17 06:38:17;;;;;;;7.17;3.80;;;21.80;98.00;;;;;;5048918;28;20529;-68
2023/07/17 06:40:44;;;;;;;5.63;3.43;;;21.80;97.90;;;;;;5052960;28;20949;-68
2023/07/17 06:43:11;;;;;;;6.50;3.80;;;21.80;97.90;;;;;;5053269;28;20472;-68
2023/07/17 06:45:38;;;;;;;5.43;4.10;;;21.70;98.10;;;;;;5052890;28;20523;-69
2023/07/17 06:48:05;;;;;;;6.90;3.80;;;21.80;98.60;;;;;;5059755;28;20435;-69
2023/07/17 06:50:34;;;;;;;5.30;4.17;;;21.80;98.70;;;;;;5073880;28;20817;-69
2023/07/17 06:53:01;;;;;;;5.00;3.50;;;21.80;98.90;;;;;;5072965;28;20527;-68
2023/07/17 06:55:28;;;;;;;5.67;4.57;;;21.80;99.30;;;;;;5071887;28;20517;-69
2023/07/17 06:57:55;;;;;;;4.80;3.63;;;21.90;99.90;;;;;;5073801;28;20438;-69
2023/07/17 07:00:22;;;;;;;6.23;4.33;;;21.90;99.80;;;;;;5074302;28;20526;-68
2023/07/17 07:02:49;;;;;;;7.23;4.87;;;22.00;99.90;;;;;;5074727;28;20532;-69
2023/07/17 07:05:16;;;;;;;7.97;4.53;;;22.10;99.80;;;;;;5074594;28;20529;-69
2023/07/17 07:07:44;;;;;;;6.23;4.20;;;22.10;99.60;;;;;;5074546;28;20530;-69
2023/07/17 07:10:11;;;;;;;7.13;4.00;;;22.10;99.90;;;;;;5074518;28;20895;-68
2023/07/17 07:12:38;;;;;;;5.47;4.07;;;22.20;99.90;;;;;;5074541;28;20854;-68
2023/07/17 07:15:06;;;;;;;6.33;4.30;;;22.30;99.90;;;;;;5074007;28;20471;-69
2023/07/17 07:17:33;;;;;;;5.20;4.03;;;22.40;99.90;;;;;;5074338;28;20435;-68
2023/07/17 07:20:00;;;;;;;6.07;4.13;;;22.50;99.90;;;;;;5074267;28;20491;-69
2023/07/17 07:22:27;;;;;;;4.80;3.73;;;22.60;99.70;;;;;;5073982;28;20515;-68
2023/07/17 07:24:55;;;;;;;6.00;3.63;;;22.60;99.20;;;;;;5073925;28;20532;-68
2023/07/17 07:27:29;;;;;;;4.77;3.70;;;22.80;99.90;;;;;;5074035;28;20496;-69
2023/07/17 07:29:56;;;;;;;9.77;4.20;;;22.90;99.00;;;;;;5074249;28;20507;-69
2023/07/17 07:32:23;;;;;;;7.30;5.23;;;23.00;98.90;;;;;;5073793;28;20519;-68
2023/07/17 07:34:50;;;;;;;7.13;4.37;;;23.10;98.60;;;;;;5066248;28;20565;-68
2023/07/17 07:37:17;;;;;;;5.30;3.47;;;23.10;99.00;;;;;;5049538;28;20525;-68
2023/07/17 07:39:44;;;;;;;4.43;3.73;;;23.20;96.30;;;;;;5052908;28;20495;-68
2023/07/17 07:42:12;;;;;;;6.70;4.00;;;23.20;96.20;;;;;;5055327;28;20535;-69
2023/07/17 07:44:39;;;;;;;6.37;4.17;;;23.30;95.70;;;;;;5059262;28;20535;-69
2023/07/17 07:47:06;;;;;;;7.80;3.60;;;23.30;94.40;;;;;;5053153;28;20520;-68
2023/07/17 07:49:33;;;;;;;4.80;3.30;;;23.30;95.00;;;;;;5053620;28;20452;-68
2023/07/17 07:52:00;;;;;;;3.97;2.80;;;23.20;92.80;;;;;;5053171;28;20520;-68
2023/07/17 07:54:27;;;;;;;5.73;3.67;;;23.10;92.00;;;;;;5053413;28;21060;-69
2023/07/17 07:56:54;;;;;;;6.77;3.43;;;23.20;92.00;;;;;;5057251;28;20528;-69
2023/07/17 07:59:22;;;;;;;4.93;3.10;;;23.20;92.70;;;;;;5056448;28;20527;-69
2023/07/17 08:01:49;;;;;;;7.30;3.60;;;23.40;93.30;;;;;;5052880;28;20448;-69
2023/07/17 08:04:16;;;;;;;5.13;3.57;;;23.50;94.10;;;;;;5057028;28;20540;-69
2023/07/17 08:06:43;;;;;;;6.60;3.67;;;23.70;94.10;;;;;;5052943;28;20528;-69
2023/07/17 08:09:10;;;;;;;5.37;3.17;;;23.90;93.90;;;;;;5052262;28;20711;-68
2023/07/17 08:11:37;;;;;;;8.03;3.97;;;24.10;94.60;;;;;;5054085;28;20533;-69
2023/07/17 08:14:03;;;;;;;7.13;3.00;;;24.20;94.30;;;;;;5056511;28;20481;-69
2023/07/17 08:16:32;;;;;;;4.93;3.50;;;24.30;94.10;;;;;;5053746;28;20875;-70
2023/07/17 08:18:59;;;;;;;3.93;2.67;;;24.50;94.10;;;;;;5051693;28;20520;-69
2023/07/17 08:21:25;;;;;;;6.90;3.00;;;24.70;93.00;;;;;;5052548;28;20515;-69
2023/07/17 08:23:52;;;;;;;5.50;3.03;;;24.80;91.70;;;;;;5057195;28;20473;-69
2023/07/17 08:26:19;;;;;;;7.20;3.30;;;24.60;86.40;;;;;;5057112;28;20935;-68
2023/07/17 08:28:46;;;;;;;4.40;3.00;;;24.40;82.20;;;;;;5052743;28;20531;-69
2023/07/17 08:31:13;;;;;;;6.57;3.80;;;24.10;84.10;;;;;;5054324;28;20528;-69
2023/07/17 08:33:41;;;;;;;5.73;2.97;;;24.10;87.30;;;;;;5052674;28;20531;-68
2023/07/17 08:36:09;;;;;;;5.93;3.07;;;24.20;89.60;;;;;;5054608;28;20855;-69
2023/07/17 08:38:36;;;;;;;5.00;3.77;;;24.30;90.00;;;;;;5052984;28;20528;-69
2023/07/17 08:41:03;;;;;;;7.53;3.50;;;24.40;85.80;;;;;;5061489;28;20441;-72
2023/07/17 08:43:30;;;;;;;3.73;2.60;;;24.60;85.10;;;;;;5052075;28;20484;-69
2023/07/17 08:45:59;;;;;;;4.20;3.53;;;24.70;85.10;;;;;;5050621;28;20845;-69
2023/07/17 08:48:27;;;;;;;5.67;3.10;;;24.80;85.10;;;;;;5052071;28;20520;-70
2023/07/17 08:50:57;;;;;;;4.40;2.87;;;24.90;84.40;;;;;;5054108;28;20544;-69
2023/07/17 08:53:24;;;;;;;4.10;2.67;;;25.00;84.50;;;;;;5055998;28;20856;-69
2023/07/17 08:55:55;;;;;;;5.90;3.07;;;25.20;81.20;;;;;;5058480;28;20592;-69
2023/07/17 08:58:23;;;;;;;5.20;3.17;;;25.30;79.80;;;;;;5055559;28;20524;-69
2023/07/17 09:00:51;;;;;;;5.97;3.10;;;25.40;80.10;;;;;;5058025;28;20447;-69
2023/07/17 09:03:19;;;;;;;4.37;2.97;;;25.60;81.40;;;;;;5060252;28;20445;-69
2023/07/17 09:05:46;;;;;;;8.90;3.27;;;25.80;79.40;;;;;;5058252;28;20510;-69
2023/07/17 09:08:14;;;;;;;5.90;3.43;;;25.80;77.90;;;;;;5057335;28;20523;-69
2023/07/17 09:10:41;;;;;;;4.10;2.83;;;25.90;77.70;;;;;;5060390;28;20564;-69
2023/07/17 09:13:09;;;;;;;4.17;2.70;;;26.00;76.80;;;;;;5059777;28;21007;-69
2023/07/17 09:15:38;;;;;;;4.63;2.90;;;26.10;74.50;;;;;;5058502;28;20484;-69
2023/07/17 09:18:05;;;;;;;4.27;3.27;;;26.10;74.90;;;;;;5058956;28;20448;-69
2023/07/17 09:20:32;;;;;;;6.30;3.80;;;26.20;78.60;;;;;;5055666;28;20447;-69
2023/07/17 09:23:01;;;;;;;5.60;3.50;;;26.30;77.90;;;;;;5064144;28;20524;-69
2023/07/17 09:25:31;;;;;;;5.53;2.90;;;26.30;78.00;;;;;;5055743;28;20441;-69
2023/07/17 09:27:59;;;;;;;4.40;2.80;;;26.40;78.60;;;;;;5058496;28;20437;-69
2023/07/17 09:30:27;;;;;;;7.07;2.70;;;26.50;77.50;;;;;;5055378;28;20919;-69
2023/07/17 09:33:04;;;;;;;5.00;3.17;;;26.60;75.00;;;;;;5062362;28;20446;-69
2023/07/17 09:35:31;;;;;;;5.37;2.90;;;26.60;78.10;;;;;;5055590;28;20571;-69
2023/07/17 09:37:58;;;;;;;5.80;3.00;;;26.70;77.00;;;;;;5057949;28;20524;-69
2023/07/17 09:40:28;;;;;;;9.57;2.90;;;26.90;76.90;;;;;;5058942;28;20926;-69
2023/07/17 09:42:56;;;;;;;5.43;2.90;;;27.10;76.30;;;;;;5060186;28;20928;-69
2023/07/17 09:45:24;;;;;;;5.17;3.03;;;27.20;71.90;;;;;;5056957;28;20524;-69
2023/07/17 09:47:52;;;;;;;4.67;3.17;;;27.20;69.70;;;;;;5058101;28;20450;-69
2023/07/17 09:50:20;;;;;;;4.97;2.87;;;27.30;68.50;;;;;;5059392;28;20526;-69
2023/07/17 09:52:49;;;;;;;4.17;3.10;;;27.30;68.70;;;;;;5058473;28;20522;-70
2023/07/17 09:55:19;;;;;;;5.57;3.10;;;27.30;71.10;;;;;;5055582;28;20485;-69
2023/07/17 09:57:48;;;;;;;6.60;3.03;;;27.40;70.40;;;;;;5060561;28;20488;-69
2023/07/17 10:00:18;;;;;;;3.93;2.50;;;27.50;66.70;;;;;;5054792;28;20992;-69
2023/07/17 10:02:56;;;;;;;4.77;3.00;;;27.50;66.70;;;;;;5057637;28;20961;-69
2023/07/17 10:05:24;;;;;;;6.37;2.50;;;27.50;70.30;;;;;;5056533;28;20512;-69
2023/07/17 10:07:52;;;;;;;4.80;3.13;;;27.50;68.70;;;;;;5060380;28;20503;-69
2023/07/17 10:10:19;;;;;;;7.10;3.10;;;27.50;67.70;;;;;;5054642;28;20982;-69
2023/07/17 10:12:49;;;;;;;4.60;2.60;;;27.60;68.00;;;;;;5061283;28;20524;-69
2023/07/17 10:15:16;;;;;;;6.33;2.60;;;27.70;70.20;;;;;;5054460;28;20571;-69
2023/07/17 10:17:43;;;;;;;6.60;3.20;;;27.90;68.80;;;;;;5059867;28;20524;-69
2023/07/17 10:20:12;;;;;;;4.90;2.80;;;28.10;65.60;;;;;;5052700;28;20473;-70
2023/07/17 10:22:43;;;;;;;5.00;3.03;;;28.20;68.30;;;;;;5062161;28;20520;-69
2023/07/17 10:25:29;;;;;;;5.80;3.00;;;28.30;69.70;;;;;;5050482;28;20441;-69
2023/07/17 10:28:02;;;;;;;3.80;2.90;;;28.30;68.00;;;;;;5055644;28;20835;-69
2023/07/17 10:30:33;;;;;;;3.93;2.50;;;28.40;63.50;;;;;;5056253;28;20446;-69
2023/07/17 10:33:10;;;;;;;4.17;3.10;;;28.40;66.00;;;;;;5059273;28;20912;-70
2023/07/17 10:35:51;;;;;;;4.20;2.53;;;28.30;64.80;;;;;;5054003;28;21018;-69
2023/07/17 10:38:19;;;;;;;5.60;3.30;;;28.30;64.10;;;;;;5050793;28;20468;-69
2023/07/17 10:40:46;;;;;;;4.27;2.83;;;28.40;66.10;;;;;;5054173;28;20445;-69
2023/07/17 10:43:17;;;;;;;6.23;3.40;;;28.40;65.40;;;;;;5058189;28;20525;-69
2023/07/17 10:45:45;;;;;;;5.27;2.83;;;28.60;66.20;;;;;;5054004;28;20524;-69
2023/07/17 10:48:12;;;;;;;5.60;3.10;;;28.60;64.30;;;;;;5053683;28;20449;-69
2023/07/17 10:50:47;;;;;;;4.50;3.00;;;28.80;62.30;;;;;;5053900;28;20528;-69
2023/07/17 10:53:14;;;;;;;6.90;3.30;;;28.80;63.50;;;;;;5053730;28;20441;-69
2023/07/17 10:55:42;;;;;;;4.60;3.10;;;28.80;60.10;;;;;;5053891;28;20481;-69
2023/07/17 10:58:09;;;;;;;6.53;3.30;;;28.90;60.00;;;;;;5054009;28;20446;-69
2023/07/17 11:00:41;;;;;;;7.60;3.63;;;28.90;62.50;;;;;;5053518;28;20999;-69
2023/07/17 11:03:08;;;;;;;4.63;3.10;;;29.00;62.60;;;;;;5054379;28;20439;-69
2023/07/17 11:05:38;;;;;;;6.23;3.10;;;29.10;62.30;;;;;;5057464;28;20476;-69
2023/07/17 11:08:05;;;;;;;4.70;2.70;;;29.20;62.00;;;;;;5055843;28;20448;-69
2023/07/17 11:10:33;;;;;;;4.00;3.00;;;29.30;62.00;;;;;;5053950;28;20895;-69
2023/07/17 11:13:03;;;;;;;5.40;3.30;;;29.40;60.30;;;;;;5059028;28;20456;-69
2023/07/17 11:15:32;;;;;;;4.37;3.30;;;29.40;58.90;;;;;;5055486;28;20534;-69
2023/07/17 11:18:01;;;;;;;5.40;3.33;;;29.50;59.60;;;;;;5053601;28;20433;-69
2023/07/17 11:20:29;;;;;;;5.10;3.43;;;29.50;58.20;;;;;;5057409;28;20452;-69
2023/07/17 11:22:56;;;;;;;3.50;2.60;;;29.60;56.90;;;;;;5054553;28;20532;-69
2023/07/17 11:25:25;;;;;;;5.70;2.90;;;29.60;58.40;;;;;;5053185;28;20527;-69
2023/07/17 11:27:53;;;;;;;5.50;3.70;;;29.60;54.70;;;;;;5047755;28;20517;-70
2023/07/17 11:30:21;;;;;;;4.20;2.40;;;29.50;56.00;;;;;;5055647;28;20530;-69
2023/07/17 11:32:56;;;;;;;4.37;3.00;;;29.60;57.60;;;;;;5058249;28;20531;-69
2023/07/17 11:35:25;;;;;;;5.23;2.93;;;29.70;57.70;;;;;;5055788;28;20469;-69
2023/07/17 11:37:54;;;;;;;5.10;3.03;;;29.80;58.10;;;;;;5055983;28;20449;-70
2023/07/17 11:40:21;;;;;;;5.30;2.60;;;29.90;58.40;;;;;;5051859;28;20492;-69
2023/07/17 11:43:03;;;;;;;4.17;2.43;;;30.00;57.70;;;;;;5053857;28;20480;-69
2023/07/17 11:45:31;;;;;;;5.43;3.10;;;30.00;57.10;;;;;;5046337;28;20508;-70
2023/07/17 11:47:59;;;;;;;4.20;2.70;;;30.00;55.80;;;;;;5053399;28;20524;-70
2023/07/17 11:50:28;;;;;;;6.13;3.07;;;30.10;56.80;;;;;;5049784;28;20485;-70
2023/07/17 11:53:04;;;;;;;4.23;3.23;;;30.20;56.00;;;;;;5055553;28;20528;-70
2023/07/17 11:55:35;;;;;;;4.07;2.97;;;30.20;56.60;;;;;;5049519;28;20483;-70
2023/07/17 11:58:12;;;;;;;4.47;3.30;;;30.30;55.80;;;;;;5053861;28;20539;-70
2023/07/17 12:00:41;;;;;;;6.97;3.60;;;30.20;54.80;;;;;;5058198;28;20448;-69
2023/07/17 12:03:08;;;;;;;5.00;3.40;;;30.10;54.60;;;;;;5055221;28;20475;-69
2023/07/17 12:05:37;;;;;;;4.20;2.93;;;30.10;54.30;;;;;;5056674;28;20943;-69
2023/07/17 12:08:09;;;;;;;5.67;3.73;;;30.10;55.00;;;;;;5053956;28;20442;-69
2023/07/17 12:10:37;;;;;;;4.80;3.50;;;30.00;54.70;;;;;;5052432;28;20552;-69
2023/07/17 12:13:06;;;;;;;4.70;3.00;;;30.00;54.40;;;;;;5058479;28;20859;-69
2023/07/17 12:15:34;;;;;;;4.90;2.90;;;30.00;54.30;;;;;;5052696;28;20893;-70
2023/07/17 12:18:08;;;;;;;5.53;3.00;;;30.00;54.40;;;;;;5051483;28;20524;-70
2023/07/17 12:20:35;;;;;;;4.60;3.37;;;30.00;54.50;;;;;;5056454;28;20532;-69
2023/07/17 12:23:05;;;;;;;4.47;2.90;;;30.00;55.20;;;;;;5053799;28;20519;-69
2023/07/17 12:25:32;;;;;;;5.10;2.80;;;29.90;55.60;;;;;;5052596;28;20441;-69
2023/07/17 12:28:04;;;;;;;3.73;3.20;;;29.90;55.80;;;;;;5062501;28;20875;-69
2023/07/17 12:30:31;;;;;;;6.90;3.77;;;29.80;54.30;;;;;;5056551;28;20520;-69
2023/07/17 12:32:59;;;;;;;9.90;3.03;;;29.70;57.00;;;;;;5058997;28;20476;-69
2023/07/17 12:35:27;;;;;;;4.93;3.47;;;29.70;56.10;;;;;;5056119;28;20520;-69
2023/07/17 12:37:54;;;;;;;6.20;3.17;;;29.70;57.10;;;;;;5059009;28;20829;-70
2023/07/17 12:40:23;;;;;;;5.63;3.33;;;29.80;56.60;;;;;;5056729;28;20532;-69
2023/07/17 12:42:50;;;;;;;5.90;3.10;;;29.90;56.10;;;;;;5058515;28;20998;-69
2023/07/17 12:45:17;;;;;;;5.33;3.43;;;30.00;56.80;;;;;;5056141;28;20511;-69
2023/07/17 12:47:44;;;;;;;5.37;3.00;;;30.10;57.10;;;;;;5058218;28;20519;-70
2023/07/17 12:50:11;;;;;;;4.70;2.73;;;30.10;56.40;;;;;;5056004;28;20472;-69
2023/07/17 12:52:38;;;;;;;5.17;3.30;;;30.20;56.70;;;;;;5058604;28;20448;-69